Time;durP1;ratioP1;P1;durP2;ratioP2;P2;SDS_P1;SDS_P2;PMS_P1;PMS_P2;Temp;Humidity;BMP_temperature;BMP_pressure;BME280_temperature;BME280_humidity;BME280_pressure;Samples;Min_cycle;Max_cycle;Signal;HPM_P1;HPM_P2
2021/07/22 00:00:33;;;;;;;13.82;8.05;;;;;;;22.13;49.76;102174.38;4922458;28;124172;-62
2021/07/22 00:03:00;;;;;;;13.77;8.43;;;;;;;22.10;49.32;102172.78;4926645;28;123838;-62
2021/07/22 00:05:27;;;;;;;13.60;8.18;;;;;;;22.07;49.60;102174.84;4910860;28;119264;-62
2021/07/22 00:07:59;;;;;;;14.00;8.80;;;;;;;22.04;49.76;102175.03;4926783;28;118879;-62
2021/07/22 00:10:26;;;;;;;12.52;8.13;;;;;;;22.00;49.71;102185.22;4923301;28;124831;-62
2021/07/22 00:12:53;;;;;;;12.82;8.07;;;;;;;21.95;49.93;102176.59;4895577;28;123623;-62
2021/07/22 00:15:21;;;;;;;13.07;8.48;;;;;;;21.91;50.13;102175.94;4924817;28;120395;-62
2021/07/22 00:17:48;;;;;;;14.20;8.75;;;;;;;21.87;50.36;102177.16;4922653;28;120010;-62
2021/07/22 00:20:15;;;;;;;17.10;8.40;;;;;;;21.85;50.13;102178.22;4911543;28;123935;-62
2021/07/22 00:22:42;;;;;;;15.80;8.80;;;;;;;21.83;50.36;102177.47;4911294;28;123741;-62
2021/07/22 00:25:09;;;;;;;15.90;8.23;;;;;;;21.80;50.42;102177.69;4922827;28;119595;-62
2021/07/22 00:27:37;;;;;;;14.57;8.82;;;;;;;21.78;50.16;102175.09;4925813;28;119450;-62
2021/07/22 00:30:05;;;;;;;14.18;8.38;;;;;;;21.79;50.45;102176.81;4921093;28;124768;-62
2021/07/22 00:32:32;;;;;;;13.85;8.73;;;;;;;21.78;50.35;102167.00;4931633;28;124460;-62
2021/07/22 00:34:59;;;;;;;14.65;8.23;;;;;;;21.77;50.35;102171.56;4920174;28;118860;-62
2021/07/22 00:37:27;;;;;;;14.52;8.82;;;;;;;21.77;50.41;102167.97;4909832;28;118405;-62
2021/07/22 00:39:54;;;;;;;16.33;9.50;;;;;;;21.77;50.73;102171.56;4919897;28;124263;-62
2021/07/22 00:42:21;;;;;;;16.67;10.38;;;;;;;21.78;50.63;102169.72;4927413;28;124138;-62
2021/07/22 00:44:49;;;;;;;16.70;10.30;;;;;;;21.77;50.75;102167.97;4894150;28;119004;-62
2021/07/22 00:47:17;;;;;;;16.75;10.30;;;;;;;21.74;50.74;102158.28;4910531;28;119476;-62
2021/07/22 00:49:50;;;;;;;16.00;9.95;;;;;;;21.76;50.72;102166.25;4923265;28;124190;-62
2021/07/22 00:52:18;;;;;;;18.08;10.45;;;;;;;21.76;50.91;102166.25;4908184;28;124447;-62
2021/07/22 00:54:48;;;;;;;14.63;9.50;;;;;;;21.75;50.70;102164.53;4924212;28;118415;-62
2021/07/22 00:57:16;;;;;;;14.07;9.17;;;;;;;21.74;50.83;102152.03;4872214;28;1141515;-62
2021/07/22 00:59:44;;;;;;;19.17;10.60;;;;;;;21.72;51.03;102159.38;4925298;28;123244;-62
2021/07/22 01:02:12;;;;;;;16.60;10.00;;;;;;;21.70;51.07;102151.38;4918420;28;123381;-62
2021/07/22 01:04:40;;;;;;;17.75;11.07;;;;;;;21.67;51.10;102156.13;4925164;28;119770;-62
2021/07/22 01:07:07;;;;;;;17.42;11.30;;;;;;;21.65;51.15;102152.69;4930862;28;119710;-62
2021/07/22 01:09:34;;;;;;;16.38;10.18;;;;;;;21.63;51.03;102154.63;4917440;28;124046;-62
2021/07/22 01:12:02;;;;;;;20.52;11.52;;;;;;;21.61;51.21;102140.41;4910933;28;124312;-62
2021/07/22 01:14:29;;;;;;;18.35;10.93;;;;;;;21.60;51.28;102154.84;4923443;28;119586;-62
2021/07/22 01:17:13;;;;;;;19.10;10.77;;;;;;;21.54;51.27;102151.59;4911110;28;118070;-62
2021/07/22 01:19:42;;;;;;;17.65;10.68;;;;;;;21.52;51.39;102153.53;4912918;28;123521;-62
2021/07/22 01:22:09;;;;;;;17.50;10.90;;;;;;;21.48;51.51;102152.03;4912363;28;123585;-62
2021/07/22 01:24:36;;;;;;;16.77;10.55;;;;;;;21.44;51.47;102150.53;4910635;28;118915;-62
2021/07/22 01:27:06;;;;;;;17.27;10.70;;;;;;;21.41;51.47;102145.31;4922250;28;118643;-62
2021/07/22 01:29:51;;;;;;;19.05;10.95;;;;;;;21.38;51.36;102150.94;4925215;28;124290;-62
2021/07/22 01:32:19;;;;;;;19.75;10.85;;;;;;;21.36;51.63;102158.25;4915486;28;124207;-62
2021/07/22 01:34:49;;;;;;;18.63;10.98;;;;;;;21.33;51.48;102147.69;4910401;28;118922;-62
2021/07/22 01:37:19;;;;;;;16.88;10.77;;;;;;;21.31;51.55;102144.25;4911577;28;118357;-62
2021/07/22 01:39:47;;;;;;;17.88;11.02;;;;;;;21.28;51.61;102149.84;4910745;28;123510;-62
2021/07/22 01:42:15;;;;;;;19.05;12.45;;;;;;;21.26;51.95;102143.69;4910522;28;124099;-62
2021/07/22 01:44:45;;;;;;;20.23;11.43;;;;;;;21.24;51.89;102148.34;4910450;28;118448;-62
2021/07/22 01:47:14;;;;;;;20.05;11.60;;;;;;;21.20;51.81;102143.16;4925190;28;119222;-62
2021/07/22 01:49:42;;;;;;;19.63;11.60;;;;;;;21.19;51.95;102146.81;4911812;28;123842;-62
2021/07/22 01:52:10;;;;;;;18.27;11.13;;;;;;;21.16;51.95;102141.63;4909141;28;124107;-62
2021/07/22 01:54:41;;;;;;;22.20;12.23;;;;;;;21.14;52.01;102146.28;4926114;28;119762;-62
2021/07/22 01:57:08;;;;;;;20.60;12.25;;;;;;;21.13;52.11;102144.53;4923430;28;119497;-62
2021/07/22 01:59:40;;;;;;;21.67;11.88;;;;;;;21.12;52.12;102150.06;4920669;28;123371;-62
2021/07/22 02:02:08;;;;;;;20.52;12.50;;;;;;;21.10;52.29;102152.00;4925023;28;124677;-62
2021/07/22 02:04:39;;;;;;;19.27;12.30;;;;;;;21.07;52.40;102144.97;4911717;28;120410;-62
2021/07/22 02:07:11;;;;;;;22.15;12.00;;;;;;;21.06;52.47;102145.94;4910500;28;118510;-62
2021/07/22 02:09:48;;;;;;;19.25;12.38;;;;;;;21.04;52.50;102137.13;4917121;28;123456;-62
2021/07/22 02:12:20;;;;;;;22.42;12.75;;;;;;;21.04;52.58;102136.22;4916968;28;124213;-62
2021/07/22 02:14:51;;;;;;;20.38;12.43;;;;;;;21.04;52.57;102142.50;4921662;28;119557;-62
2021/07/22 02:17:19;;;;;;;19.77;11.98;;;;;;;21.03;52.64;102140.75;4910617;28;118992;-62
2021/07/22 02:19:47;;;;;;;22.42;13.10;;;;;;;21.04;52.81;102142.50;4915798;28;123886;-62
2021/07/22 02:22:16;;;;;;;20.70;12.98;;;;;;;21.03;52.88;102138.06;4924536;28;124103;-62
2021/07/22 02:24:54;;;;;;;19.55;12.20;;;;;;;21.03;53.04;102142.59;4918487;28;119594;-62
2021/07/22 02:27:39;;;;;;;21.80;12.23;;;;;;;21.02;52.83;102133.66;4918675;28;118788;-62
2021/07/22 02:30:07;;;;;;;20.50;12.35;;;;;;;21.01;52.88;102131.94;4910148;28;124051;-62
2021/07/22 02:32:35;;;;;;;18.60;11.57;;;;;;;21.01;52.88;102142.69;4923651;28;123633;-62
2021/07/22 02:35:04;;;;;;;20.55;11.88;;;;;;;21.00;53.02;102141.84;4915931;28;119535;-62
2021/07/22 02:37:49;;;;;;;19.42;11.88;;;;;;;20.97;53.13;102143.88;4929768;28;119695;-62
2021/07/22 02:40:20;;;;;;;20.65;12.73;;;;;;;20.95;53.00;102143.13;4917778;28;123277;-62
2021/07/22 02:42:48;;;;;;;20.83;12.10;;;;;;;20.94;53.15;102146.78;4910580;28;123263;-62
2021/07/22 02:45:19;;;;;;;19.85;12.20;;;;;;;20.92;53.00;102148.72;4918754;28;119524;-62
2021/07/22 02:47:46;;;;;;;19.15;11.93;;;;;;;20.91;53.03;102141.63;4911798;28;120185;-62
2021/07/22 02:50:13;;;;;;;22.10;12.40;;;;;;;20.88;53.25;102147.19;4929653;28;123468;-62
2021/07/22 02:52:44;;;;;;;18.88;11.60;;;;;;;20.87;53.19;102150.84;4930686;28;124423;-62
2021/07/22 02:55:12;;;;;;;22.00;11.55;;;;;;;20.84;53.01;102140.31;4921122;28;119436;-62
2021/07/22 02:57:40;;;;;;;19.85;11.68;;;;;;;20.80;53.21;102139.66;4903297;28;119843;-62
2021/07/22 03:00:08;;;;;;;18.23;11.18;;;;;;;20.78;53.00;102137.06;4914615;28;123748;-62
2021/07/22 03:02:36;;;;;;;20.70;12.10;;;;;;;20.76;53.08;102139.00;4920259;28;123393;-62
2021/07/22 03:05:04;;;;;;;18.05;11.10;;;;;;;20.74;53.05;102146.31;4909249;28;119464;-62
2021/07/22 03:07:33;;;;;;;19.30;11.20;;;;;;;20.71;53.14;102146.50;4909852;28;118391;-62
2021/07/22 03:10:03;;;;;;;20.42;11.05;;;;;;;20.69;53.15;102148.44;4898062;28;123477;-62
2021/07/22 03:12:30;;;;;;;21.30;11.73;;;;;;;20.68;53.29;102141.34;4932423;28;124245;-62
2021/07/22 03:15:01;;;;;;;20.02;11.57;;;;;;;20.66;53.44;102140.56;4916705;28;119808;-62
2021/07/22 03:17:31;;;;;;;18.88;11.50;;;;;;;20.61;53.37;102150.78;4913962;28;119609;-62
2021/07/22 03:20:00;;;;;;;16.38;10.38;;;;;;;20.56;53.44;102147.50;4928946;28;123975;-62
2021/07/22 03:22:44;;;;;;;16.95;10.70;;;;;;;20.53;53.55;102142.31;4921259;28;123018;-62
2021/07/22 03:25:28;;;;;;;19.42;10.82;;;;;;;20.47;53.36;102142.72;4915114;28;118542;-62
2021/07/22 03:28:04;;;;;;;19.27;11.38;;;;;;;20.42;53.53;102135.81;4913314;28;122051;-62
2021/07/22 03:30:51;;;;;;;19.25;11.85;;;;;;;20.39;53.57;102146.78;4916132;28;124465;-62
2021/07/22 03:33:35;;;;;;;18.92;11.43;;;;;;;20.36;53.83;102141.63;4916676;28;124142;-62
2021/07/22 03:36:14;;;;;;;18.52;11.10;;;;;;;20.35;53.88;102139.03;4914979;28;120192;-62
2021/07/22 03:38:45;;;;;;;20.02;11.65;;;;;;;20.30;53.84;102141.16;4920944;28;119360;-62
2021/07/22 03:41:32;;;;;;;20.98;11.45;;;;;;;20.28;53.98;102135.88;4914300;28;124605;-62
2021/07/22 03:44:13;;;;;;;19.00;11.05;;;;;;;20.25;53.96;102144.16;4918247;28;123321;-62
2021/07/22 03:46:41;;;;;;;20.48;11.48;;;;;;;20.23;54.18;102141.56;4916432;28;119462;-62
2021/07/22 03:49:10;;;;;;;20.25;11.73;;;;;;;20.22;54.39;102136.28;4916626;28;118459;-62
2021/07/22 03:51:38;;;;;;;20.65;11.82;;;;;;;20.21;54.41;102142.59;4925514;28;124212;-62
2021/07/22 03:54:05;;;;;;;20.33;11.38;;;;;;;20.19;54.57;102144.53;4931172;28;123044;-62
2021/07/22 03:56:34;;;;;;;19.75;11.52;;;;;;;20.19;54.79;102139.16;4914551;28;118794;-62
2021/07/22 03:59:05;;;;;;;20.77;11.63;;;;;;;20.19;54.71;102144.53;4919107;28;118454;-62
2021/07/22 04:01:37;;;;;;;20.73;12.10;;;;;;;20.19;55.02;102133.78;4913539;28;124350;-62
2021/07/22 04:04:22;;;;;;;20.05;11.52;;;;;;;20.20;55.04;102143.59;4916619;28;123887;-62
2021/07/22 04:06:52;;;;;;;21.02;12.27;;;;;;;20.20;55.16;102140.91;4923578;28;118418;-62
2021/07/22 04:09:42;;;;;;;21.60;12.02;;;;;;;20.20;55.44;102141.75;4914109;28;119195;-62
2021/07/22 04:12:35;;;;;;;19.50;11.65;;;;;;;20.21;55.45;102131.84;4924396;28;125498;-62
2021/07/22 04:15:23;;;;;;;21.75;12.25;;;;;;;20.23;55.76;102138.00;4909613;28;124651;-62
2021/07/22 04:18:10;;;;;;;19.33;11.18;;;;;;;20.23;55.97;102141.56;4917862;28;119835;-62
2021/07/22 04:20:59;;;;;;;21.95;11.50;;;;;;;20.24;56.01;102137.03;4911334;28;119318;-62
2021/07/22 04:23:33;;;;;;;23.65;11.85;;;;;;;20.27;56.01;102142.22;4910477;28;127291;-62
2021/07/22 04:26:18;;;;;;;24.45;12.20;;;;;;;20.27;56.06;102136.84;4922504;28;124805;-62
2021/07/22 04:29:11;;;;;;;23.25;11.80;;;;;;;20.29;56.11;102145.69;4926986;28;120676;-62
2021/07/22 04:31:39;;;;;;;22.60;12.05;;;;;;;20.30;56.33;102147.38;4920309;28;119028;-62
2021/07/22 04:34:32;;;;;;;22.50;11.80;;;;;;;20.31;56.30;102151.81;4910524;28;124228;-62
2021/07/22 04:37:32;;;;;;;21.45;11.73;;;;;;;20.34;56.24;102148.94;4906227;28;124491;-62
2021/07/22 04:40:17;;;;;;;;;;;;;;;20.33;55.53;102147.19;4933614;28;120109;-62
2021/07/22 04:43:10;;;;;;;20.67;11.38;;;;;;;20.37;55.77;102147.84;4915322;28;118828;-62
2021/07/22 04:46:00;;;;;;;;;;;;;;;20.34;55.26;102143.56;4932981;28;124915;-62
2021/07/22 04:48:45;;;;;;;24.95;12.20;;;;;;;20.36;55.75;102141.63;4921700;28;124886;-62
2021/07/22 04:51:29;;;;;;;22.10;11.43;;;;;;;20.36;55.90;102151.50;4918888;28;118695;-62
2021/07/22 04:54:07;;;;;;;20.92;10.98;;;;;;;20.38;56.23;102150.47;4903607;28;121117;-62
2021/07/22 04:56:34;;;;;;;20.60;11.65;;;;;;;20.39;56.40;102146.78;4912124;28;124038;-62
2021/07/22 04:59:02;;;;;;;24.52;12.07;;;;;;;20.43;56.62;102150.13;4916339;28;123100;-62
2021/07/22 05:01:31;;;;;;;23.25;11.55;;;;;;;20.47;56.65;102158.88;4920544;28;119175;-62
2021/07/22 05:03:59;;;;;;;20.75;12.05;;;;;;;20.50;56.88;102150.63;4918272;28;119463;-62
2021/07/22 05:06:44;;;;;;;20.80;11.85;;;;;;;20.55;56.72;102156.53;4919276;28;124264;-62
2021/07/22 05:09:32;;;;;;;22.45;11.80;;;;;;;20.60;56.87;102166.06;4925843;28;124893;-62
2021/07/22 05:12:22;;;;;;;20.77;11.10;;;;;;;20.64;56.78;102161.34;4912705;28;119569;-62
2021/07/22 05:15:02;;;;;;;21.50;11.60;;;;;;;20.68;56.85;102162.00;4919788;28;119157;-62
2021/07/22 05:17:39;;;;;;;20.17;11.63;;;;;;;20.72;56.89;102164.41;4913054;28;124525;-62
2021/07/22 05:20:25;;;;;;;23.15;12.43;;;;;;;20.74;57.14;102167.84;4925357;28;124901;-62
2021/07/22 05:23:03;;;;;;;22.45;12.57;;;;;;;20.76;57.09;102165.91;4926400;28;119703;-62
2021/07/22 05:25:48;;;;;;;;;;;;;;;20.78;56.36;102166.69;4912351;28;121203;-62
2021/07/22 05:28:29;;;;;;;20.08;11.00;;;;;;;20.83;56.79;102165.50;4911326;28;123418;-62
2021/07/22 05:31:18;;;;;;;23.55;12.25;;;;;;;20.86;56.93;102165.31;4912452;28;123283;-62
2021/07/22 05:34:24;;;;;;;20.48;11.18;;;;;;;20.87;57.21;102156.22;4909424;28;119832;-62
2021/07/22 05:37:07;;;;;;;21.02;11.43;;;;;;;20.90;57.28;102172.19;4899354;28;119073;-62
2021/07/22 05:39:40;;;;;;;20.75;11.50;;;;;;;20.94;57.44;102168.31;4906839;28;123912;-62
2021/07/22 05:42:07;;;;;;;23.35;12.13;;;;;;;20.99;57.59;102166.19;4925942;28;124223;-62
2021/07/22 05:44:34;;;;;;;24.10;12.82;;;;;;;21.03;57.53;102167.69;4911439;28;120438;-62
2021/07/22 05:47:01;;;;;;;22.40;12.45;;;;;;;21.09;57.83;102166.41;4924530;28;119393;-62
2021/07/22 05:49:30;;;;;;;22.40;11.70;;;;;;;21.14;57.82;102169.66;4919489;28;124186;-62
2021/07/22 05:52:01;;;;;;;23.88;13.02;;;;;;;21.18;57.85;102166.63;4921760;23;124089;-67
2021/07/22 05:54:28;;;;;;;21.17;11.98;;;;;;;21.23;58.01;102168.16;4937275;28;116450;-68
2021/07/22 05:56:55;;;;;;;21.50;12.50;;;;;;;21.28;58.03;102161.47;4923275;28;119115;-68
2021/07/22 05:59:22;;;;;;;23.08;12.52;;;;;;;21.34;58.12;102163.75;4910926;28;124001;-65
2021/07/22 06:01:49;;;;;;;22.48;12.13;;;;;;;21.39;57.99;102174.22;4907221;28;123219;-67
2021/07/22 06:04:17;;;;;;;22.75;12.68;;;;;;;21.45;57.89;102167.56;4905580;28;119577;-66
2021/07/22 06:06:44;;;;;;;21.98;12.93;;;;;;;21.50;57.96;102166.25;4909411;28;119770;-65
2021/07/22 06:09:11;;;;;;;25.60;12.48;;;;;;;21.58;58.09;102169.28;4910140;28;125019;-66
2021/07/22 06:11:38;;;;;;;23.38;12.85;;;;;;;21.66;57.95;102175.97;4908650;28;124124;-66
2021/07/22 06:14:05;;;;;;;24.08;13.00;;;;;;;21.73;57.93;102167.31;4908456;28;120602;-66
2021/07/22 06:16:33;;;;;;;24.45;13.13;;;;;;;21.81;57.82;102174.88;4926561;28;119264;-66
2021/07/22 06:19:00;;;;;;;25.65;12.98;;;;;;;21.89;57.79;102172.50;4909982;28;123475;-66
2021/07/22 06:21:27;;;;;;;23.55;12.75;;;;;;;21.98;57.81;102170.94;4907747;28;123842;-66
2021/07/22 06:23:54;;;;;;;27.17;13.88;;;;;;;22.07;57.88;102175.69;4922109;28;119581;-66
2021/07/22 06:26:21;;;;;;;23.63;13.15;;;;;;;22.16;57.73;102174.16;4900493;28;118944;-66
2021/07/22 06:28:48;;;;;;;23.80;13.00;;;;;;;22.25;57.71;102173.53;4905815;28;123866;-66
2021/07/22 06:31:15;;;;;;;23.40;12.57;;;;;;;22.33;57.61;102171.13;4910955;28;123006;-66
2021/07/22 06:33:42;;;;;;;23.00;12.32;;;;;;;22.43;57.61;102165.03;4893222;28;119538;-66
2021/07/22 06:36:10;;;;;;;21.70;12.50;;;;;;;22.51;57.63;102168.03;4909587;28;119482;-66
2021/07/22 06:38:37;;;;;;;23.10;12.65;;;;;;;22.61;57.57;102169.06;4911193;28;124881;-66
2021/07/22 06:41:04;;;;;;;24.55;12.43;;;;;;;22.73;57.43;102170.84;4899719;28;124128;-66
2021/07/22 06:43:32;;;;;;;19.77;11.55;;;;;;;22.86;57.30;102167.19;4908991;28;119861;-65
2021/07/22 06:45:59;;;;;;;23.35;12.85;;;;;;;22.97;57.00;102164.53;4911053;28;118967;-65
2021/07/22 06:48:27;;;;;;;23.23;11.98;;;;;;;23.07;57.00;102165.56;4913345;28;124762;-65
2021/07/22 06:50:54;;;;;;;23.17;12.23;;;;;;;23.21;56.81;102167.22;4911723;28;124862;-65
2021/07/22 06:53:22;;;;;;;24.08;13.15;;;;;;;23.33;56.74;102165.41;4914259;28;119107;-65
2021/07/22 06:55:49;;;;;;;23.13;12.30;;;;;;;23.49;56.69;102165.94;4913750;28;119843;-65
2021/07/22 06:58:16;;;;;;;21.73;12.02;;;;;;;23.64;56.15;102169.25;4914892;28;124798;-66
2021/07/22 07:00:43;;;;;;;20.02;11.60;;;;;;;23.76;56.31;102162.00;4912971;28;124142;-65
2021/07/22 07:03:10;;;;;;;20.80;11.35;;;;;;;23.90;56.07;102164.50;4912803;28;120735;-66
2021/07/22 07:05:38;;;;;;;20.58;11.60;;;;;;;24.04;55.78;102165.22;4911499;28;119804;-66
2021/07/22 07:08:05;;;;;;;21.63;12.10;;;;;;;24.17;55.86;102157.81;4913762;28;124158;-66
2021/07/22 07:10:33;;;;;;;22.50;11.88;;;;;;;24.32;55.41;102168.34;4915879;28;123791;-66
2021/07/22 07:13:00;;;;;;;20.25;11.43;;;;;;;24.44;55.24;102168.19;4908389;28;118754;-65
2021/07/22 07:15:28;;;;;;;21.73;12.13;;;;;;;24.56;55.01;102166.34;4909610;28;120166;-66
2021/07/22 07:17:57;;;;;;;22.73;12.25;;;;;;;24.67;54.46;102168.16;4913631;28;124108;-66
2021/07/22 07:20:24;;;;;;;22.75;11.57;;;;;;;24.75;54.08;102164.78;4912827;28;124607;-68
2021/07/22 07:22:53;;;;;;;20.15;11.13;;;;;;;24.85;54.11;102171.19;4914080;28;119189;-67
2021/07/22 07:25:21;;;;;;;18.45;10.95;;;;;;;24.94;53.65;102170.41;4913303;28;119208;-67
2021/07/22 07:27:48;;;;;;;20.70;11.48;;;;;;;25.05;53.56;102166.75;4913864;28;124171;-67
2021/07/22 07:30:19;;;;;;;20.40;11.38;;;;;;;25.13;53.22;102166.09;4897943;28;124085;-65
2021/07/22 07:32:52;;;;;;;19.55;11.30;;;;;;;25.22;52.92;102173.41;4913080;28;119460;-65
2021/07/22 07:35:19;;;;;;;19.73;11.30;;;;;;;25.30;53.15;102170.97;4920198;28;119340;-65
2021/07/22 07:37:46;;;;;;;20.17;10.98;;;;;;;25.35;52.72;102176.81;4913325;28;124259;-65
2021/07/22 07:40:14;;;;;;;19.83;11.05;;;;;;;25.42;52.59;102180.72;4911461;28;124362;-65
2021/07/22 07:42:41;;;;;;;18.20;11.02;;;;;;;25.49;52.49;102174.78;4913038;28;118524;-65
2021/07/22 07:45:09;;;;;;;18.40;10.73;;;;;;;25.59;52.68;102181.09;4896524;28;121657;-65
2021/07/22 07:47:36;;;;;;;19.33;11.07;;;;;;;25.67;52.18;102178.56;4913294;28;124631;-65
2021/07/22 07:50:04;;;;;;;17.40;10.27;;;;;;;25.78;52.45;102180.34;4912528;28;122888;-65
2021/07/22 07:52:31;;;;;;;20.92;10.27;;;;;;;25.89;52.19;102177.53;4912295;28;119541;-65
2021/07/22 07:54:58;;;;;;;20.00;10.43;;;;;;;25.98;51.72;102181.31;4913422;28;120368;-65
2021/07/22 07:57:25;;;;;;;16.52;9.23;;;;;;;26.06;51.80;102173.34;4912415;28;123193;-65
2021/07/22 07:59:52;;;;;;;15.20;9.82;;;;;;;26.13;51.34;102188.06;4923916;28;123147;-65
2021/07/22 08:02:20;;;;;;;14.43;8.98;;;;;;;26.21;51.31;102185.50;4905850;28;119365;-65
2021/07/22 08:04:48;;;;;;;17.00;8.98;;;;;;;26.31;50.93;102181.97;4911010;28;119007;-65
2021/07/22 08:07:15;;;;;;;15.68;9.23;;;;;;;26.40;51.19;102181.13;4910441;28;124196;-65
2021/07/22 08:09:44;;;;;;;18.02;8.65;;;;;;;26.51;50.55;102183.72;4904460;28;124400;-65
2021/07/22 08:12:11;;;;;;;12.68;8.68;;;;;;;26.56;50.11;102186.88;4910900;28;119528;-65
2021/07/22 08:14:38;;;;;;;13.80;8.18;;;;;;;26.53;49.92;102181.72;4911940;28;119036;-65
2021/07/22 08:17:06;;;;;;;15.82;8.45;;;;;;;26.48;49.78;102184.00;4911808;28;124404;-65
2021/07/22 08:19:34;;;;;;;15.07;8.93;;;;;;;26.47;50.00;102181.44;4905974;28;125538;-65
2021/07/22 08:22:01;;;;;;;13.73;8.93;;;;;;;26.46;49.63;102180.56;4913577;28;120009;-65
2021/07/22 08:24:28;;;;;;;14.75;8.88;;;;;;;26.45;49.57;102181.56;4909535;28;119059;-65
2021/07/22 08:26:55;;;;;;;15.63;8.02;;;;;;;26.39;49.42;102174.84;4911572;28;124056;-65
2021/07/22 08:29:22;;;;;;;14.02;7.97;;;;;;;26.33;48.92;102179.97;4911328;28;123999;-65
2021/07/22 08:31:49;;;;;;;12.93;7.35;;;;;;;26.29;49.06;102181.25;4914135;28;119170;-65
2021/07/22 08:34:17;;;;;;;11.80;6.90;;;;;;;26.30;48.69;102181.13;4910118;28;119108;-65
2021/07/22 08:36:44;;;;;;;12.10;7.07;;;;;;;26.34;48.64;102173.53;4913546;28;125188;-65
2021/07/22 08:39:11;;;;;;;11.43;7.15;;;;;;;26.37;48.77;102175.97;4910489;28;123712;-65
2021/07/22 08:41:46;;;;;;;10.77;6.63;;;;;;;26.36;48.56;102175.13;4909973;28;120655;-65
2021/07/22 08:44:13;;;;;;;12.70;6.75;;;;;;;26.36;48.30;102182.41;4910330;28;120259;-65
2021/07/22 08:46:42;;;;;;;12.60;7.50;;;;;;;26.36;48.09;102171.53;4912460;28;123920;-65
2021/07/22 08:49:10;;;;;;;12.70;7.75;;;;;;;26.38;47.99;102172.25;4910422;28;123924;-65
2021/07/22 08:51:37;;;;;;;13.15;7.45;;;;;;;26.42;47.69;102176.41;4903596;28;119716;-65
2021/07/22 08:54:04;;;;;;;12.02;7.22;;;;;;;26.45;47.61;102173.41;4911056;28;119330;-64
2021/07/22 08:56:32;;;;;;;14.20;7.25;;;;;;;26.52;47.82;102171.88;4911317;28;123173;-64
2021/07/22 08:59:00;;;;;;;12.07;8.02;;;;;;;26.54;47.26;102172.59;4928392;28;122886;-64
2021/07/22 09:01:31;;;;;;;14.65;7.60;;;;;;;26.54;47.39;102172.59;4912866;28;119196;-64
2021/07/22 09:03:59;;;;;;;12.82;6.95;;;;;;;26.58;47.14;102174.00;4909625;28;119260;-64
2021/07/22 09:06:26;;;;;;;11.93;6.78;;;;;;;26.63;46.74;102161.88;4911190;28;124134;-64
2021/07/22 09:09:16;;;;;;;12.40;7.05;;;;;;;26.69;46.83;102169.44;4911262;28;124339;-65
2021/07/22 09:12:00;;;;;;;13.73;7.40;;;;;;;26.76;47.02;102165.16;4910103;28;119452;-65
2021/07/22 09:14:29;;;;;;;13.27;7.63;;;;;;;26.82;46.88;102170.03;4903977;28;118859;-65
2021/07/22 09:16:58;;;;;;;11.77;6.75;;;;;;;26.87;46.58;102170.47;4910920;28;123023;-65
2021/07/22 09:19:39;;;;;;;15.02;7.63;;;;;;;26.94;46.84;102174.31;4908261;28;122674;-65
2021/07/22 09:22:08;;;;;;;10.40;6.28;;;;;;;27.04;47.03;102168.03;4907575;28;119621;-65
2021/07/22 09:24:50;;;;;;;13.25;7.43;;;;;;;27.19;47.29;102172.00;4927105;28;119682;-65
2021/07/22 09:27:41;;;;;;;11.88;7.28;;;;;;;27.30;47.01;102169.16;4912917;28;123154;-65
2021/07/22 09:30:19;;;;;;;12.15;7.13;;;;;;;27.28;46.25;102171.16;4910112;28;124061;-65
2021/07/22 09:32:50;;;;;;;12.63;7.45;;;;;;;27.22;46.22;102169.00;4898470;28;120310;-64
2021/07/22 09:35:20;;;;;;;10.32;6.85;;;;;;;27.23;46.64;102167.97;4908750;28;120014;-65
2021/07/22 09:37:52;;;;;;;14.10;7.05;;;;;;;27.34;46.70;102170.56;4921612;28;123741;-65
2021/07/22 09:40:25;;;;;;;10.00;6.55;;;;;;;27.46;46.61;102175.84;4912966;28;122824;-65
2021/07/22 09:42:54;;;;;;;9.85;6.65;;;;;;;27.54;45.91;102175.97;4905225;28;119146;-65
2021/07/22 09:45:27;;;;;;;10.95;6.40;;;;;;;27.60;45.18;102175.38;4904336;28;118759;-65
2021/07/22 09:47:56;;;;;;;9.35;6.32;;;;;;;27.64;45.18;102175.94;4912084;28;124283;-65
2021/07/22 09:50:25;;;;;;;9.18;5.95;;;;;;;27.66;44.91;102172.03;4910032;28;124271;-65
2021/07/22 09:53:11;;;;;;;10.00;6.45;;;;;;;27.70;44.94;102170.72;4911019;28;118409;-65
2021/07/22 09:55:41;;;;;;;10.88;6.93;;;;;;;27.77;44.86;102169.13;4902223;28;119189;-65
2021/07/22 09:58:11;;;;;;;10.02;6.35;;;;;;;27.80;44.81;102169.84;4925403;28;125064;-65
2021/07/22 10:00:40;;;;;;;11.30;6.25;;;;;;;27.74;44.21;102171.28;4911679;28;124460;-65
2021/07/22 10:03:15;;;;;;;9.52;5.70;;;;;;;27.59;43.77;102173.63;4903687;28;119165;-65
2021/07/22 10:05:45;;;;;;;9.85;6.28;;;;;;;27.51;43.92;102173.53;4910870;28;118797;-65
2021/07/22 10:08:17;;;;;;;10.18;7.03;;;;;;;27.41;44.48;102176.28;4910344;28;122872;-65
2021/07/22 10:10:52;;;;;;;9.13;6.05;;;;;;;27.33;44.08;102168.88;4907562;28;124627;-65
2021/07/22 10:13:27;;;;;;;7.65;5.28;;;;;;;27.32;44.19;102167.13;4909132;28;119287;-65
2021/07/22 10:15:56;;;;;;;;;;;;;;;27.35;44.75;102160.53;4912378;28;119522;-65
2021/07/22 10:18:26;;;;;;;10.95;5.65;;;;;;;27.46;43.84;102167.66;4910517;28;125066;-65
2021/07/22 10:20:56;;;;;;;8.30;4.93;;;;;;;27.52;43.48;102156.19;4905652;28;124695;-65
2021/07/22 10:23:24;;;;;;;11.52;5.88;;;;;;;27.59;43.45;102154.59;4911274;28;119201;-65
2021/07/22 10:25:51;;;;;;;9.27;5.53;;;;;;;27.68;44.17;102156.41;4912797;28;119318;-64
2021/07/22 10:28:18;;;;;;;10.02;5.97;;;;;;;27.81;43.89;102155.22;4911628;28;124434;-64
2021/07/22 10:30:48;;;;;;;10.10;6.07;;;;;;;27.92;43.76;102160.50;4910497;28;123404;-65
2021/07/22 10:33:23;;;;;;;9.35;6.18;;;;;;;27.96;43.12;102164.63;4909005;28;119355;-64
2021/07/22 10:35:52;;;;;;;9.27;5.68;;;;;;;27.93;43.30;102154.03;4908010;28;119212;-65
2021/07/22 10:38:27;;;;;;;9.55;6.07;;;;;;;27.88;43.11;102153.63;4920367;28;124385;-65
2021/07/22 10:40:59;;;;;;;10.23;6.68;;;;;;;27.83;43.47;102147.75;4908230;28;123751;-65
2021/07/22 10:43:39;;;;;;;11.02;6.40;;;;;;;27.76;43.17;102151.09;4901345;28;117648;-65
2021/07/22 10:46:06;;;;;;;9.52;6.05;;;;;;;27.67;42.99;102149.28;4910403;28;119774;-65
2021/07/22 10:48:34;;;;;;;8.85;5.70;;;;;;;27.58;43.00;102144.72;4909970;28;122986;-65
2021/07/22 10:51:04;;;;;;;8.55;5.60;;;;;;;27.56;43.22;102138.56;4899876;28;123865;-65
2021/07/22 10:53:38;;;;;;;9.52;5.85;;;;;;;27.59;42.94;102143.69;4909078;28;119700;-65
2021/07/22 10:56:07;;;;;;;8.27;4.93;;;;;;;27.67;43.17;102132.94;4908696;28;119180;-65
2021/07/22 10:58:34;;;;;;;8.82;5.00;;;;;;;27.81;42.83;102138.88;4906421;28;123878;-65
2021/07/22 11:01:06;;;;;;;11.13;5.53;;;;;;;27.96;42.81;102132.81;4905105;28;123963;-65
2021/07/22 11:03:36;;;;;;;10.55;6.22;;;;;;;28.07;42.89;102134.47;4885442;28;118193;-65
2021/07/22 11:06:05;;;;;;;9.15;6.07;;;;;;;28.08;43.06;102136.16;4909026;28;119127;-64
2021/07/22 11:08:37;;;;;;;9.32;5.90;;;;;;;28.09;42.41;102131.59;4909641;28;123305;-64
2021/07/22 11:11:09;;;;;;;10.88;6.18;;;;;;;28.14;42.26;102135.56;4908902;28;124475;-64
2021/07/22 11:13:37;;;;;;;11.35;6.60;;;;;;;28.19;42.65;102131.53;4910618;28;120104;-64
2021/07/22 11:16:06;;;;;;;9.07;6.30;;;;;;;28.21;42.65;102129.50;4910083;28;120042;-65
2021/07/22 11:18:48;;;;;;;9.30;6.35;;;;;;;28.28;42.71;102133.34;4914179;28;123912;-65
2021/07/22 11:21:17;;;;;;;11.52;6.47;;;;;;;28.34;42.33;102127.25;4909617;28;123087;-64
2021/07/22 11:24:07;;;;;;;9.80;6.57;;;;;;;28.38;41.90;102131.38;4906786;28;118349;-64
2021/07/22 11:26:36;;;;;;;10.23;5.90;;;;;;;28.43;41.88;102129.06;4902371;28;118237;-65